Time;durP1;ratioP1;P1;durP2;ratioP2;P2;SDS_P1;SDS_P2;PMS_P1;PMS_P2;Temp;Humidity;BMP_temperature;BMP_pressure;BME280_temperature;BME280_humidity;BME280_pressure;Samples;Min_cycle;Max_cycle;Signal;HPM_P1;HPM_P2
2023/08/01 00:02:16;;;;;;;;;;;;;;;23.03;100.00;99791.73;105458;1259;61257;-62
2023/08/01 00:04:43;;;;;;;;;;;;;;;23.00;100.00;99789.64;105255;1260;61174;-65
2023/08/01 00:07:10;;;;;;;;;;;;;;;22.97;100.00;99790.09;104646;1264;75327;-62
2023/08/01 00:09:37;;;;;;;;;;;;;;;22.96;100.00;99789.93;104868;1261;67208;-61
2023/08/01 00:12:04;;;;;;;;;;;;;;;22.95;100.00;99784.67;104971;1263;72850;-61
2023/08/01 00:14:31;;;;;;;;;;;;;;;22.93;100.00;99780.76;105034;1262;61168;-63
2023/08/01 00:16:58;;;;;;;;;;;;;;;22.92;100.00;99783.48;105089;1262;61234;-66
2023/08/01 00:19:25;;;;;;;;;;;;;;;22.92;100.00;99780.60;104947;1261;74657;-61
2023/08/01 00:21:51;;;;;;;;;;;;;;;22.91;100.00;99779.04;104989;1259;67202;-61
2023/08/01 00:24:18;;;;;;;;;;;;;;;22.90;100.00;99777.92;105193;1262;71420;-65
2023/08/01 00:26:45;;;;;;;;;;;;;;;22.88;100.00;99778.73;105260;1259;61355;-65
2023/08/01 00:29:12;;;;;;;;;;;;;;;22.87;100.00;99775.65;104937;1261;61260;-63
2023/08/01 00:31:39;;;;;;;;;;;;;;;22.85;100.00;99771.95;104917;1260;73215;-61
2023/08/01 00:34:06;;;;;;;;;;;;;;;22.82;100.00;99769.84;105634;1259;67205;-62
2023/08/01 00:36:33;;;;;;;;;;;;;;;22.81;100.00;99766.24;104907;1261;73179;-61
2023/08/01 00:39:00;;;;;;;;;;;;;;;22.80;100.00;99767.77;105208;1261;61896;-65
2023/08/01 00:41:27;;;;;;;;;;;;;;;22.80;100.00;99768.52;105000;1262;61143;-61
2023/08/01 00:43:54;;;;;;;;;;;;;;;22.79;100.00;99764.23;105264;1260;74476;-62
2023/08/01 00:46:21;;;;;;;;;;;;;;;22.78;100.00;99763.48;104956;1262;66541;-61
2023/08/01 00:48:47;;;;;;;;;;;;;;;22.78;100.00;99761.32;104782;1265;71418;-61
2023/08/01 00:51:15;;;;;;;;;;;;;;;22.77;100.00;99759.16;105101;1263;61362;-66
2023/08/01 00:53:41;;;;;;;;;;;;;;;22.76;100.00;99763.18;104931;1262;61126;-61
2023/08/01 00:56:08;;;;;;;;;;;;;;;22.75;100.00;99760.27;105361;1259;74639;-62
2023/08/01 00:58:35;;;;;;;;;;;;;;;22.73;100.00;99759.73;105303;1261;67301;-62
2023/08/01 01:01:03;;;;;;;;;;;;;;;22.70;100.00;99758.50;104937;1260;73204;-62
2023/08/01 01:03:30;;;;;;;;;;;;;;;22.67;100.00;99765.05;104916;1261;62516;-63
2023/08/01 01:05:57;;;;;;;;;;;;;;;22.63;100.00;99762.95;105167;1259;61171;-61
2023/08/01 01:08:24;;;;;;;;;;;;;;;22.59;100.00;99761.16;104925;1260;74758;-59
2023/08/01 01:10:52;;;;;;;;;;;;;;;22.56;100.00;99765.32;104807;1261;66087;-63
2023/08/01 01:13:19;;;;;;;;;;;;;;;22.56;100.00;99760.65;105020;1266;71426;-61
2023/08/01 01:15:45;;;;;;;;;;;;;;;22.56;100.00;99764.04;105264;1259;61358;-59
2023/08/01 01:18:13;;;;;;;;;;;;;;;22.57;100.00;99763.61;104934;1262;61178;-60
2023/08/01 01:20:39;;;;;;;;;;;;;;;22.56;100.00;99762.72;105064;1259;73396;-59
2023/08/01 01:23:06;;;;;;;;;;;;;;;22.56;100.00;99762.88;104685;1260;67140;-64
2023/08/01 01:25:33;;;;;;;;;;;;;;;22.55;100.00;99763.95;105276;1265;72022;-60
2023/08/01 01:28:00;;;;;;;;;;;;;;;22.51;100.00;99762.54;105368;1266;61302;-61
2023/08/01 01:30:27;;;;;;;;;;;;;;;22.47;100.00;99764.46;104973;1265;61232;-60
2023/08/01 01:32:54;;;;;;;;;;;;;;;22.44;100.00;99764.33;105060;1261;73401;-59
2023/08/01 01:35:21;;;;;;;;;;;;;;;22.41;100.00;99765.29;104992;1260;65362;-59
2023/08/01 01:37:47;;;;;;;;;;;;;;;22.38;100.00;99765.10;105326;1261;72774;-60
2023/08/01 01:40:15;;;;;;;;;;;;;;;22.35;100.00;99766.27;105029;1258;61359;-63
2023/08/01 01:42:42;;;;;;;;;;;;;;;22.33;100.00;99769.21;105166;1263;61170;-64
2023/08/01 01:45:09;;;;;;;;;;;;;;;22.29;100.00;99768.80;105151;1260;74747;-64
2023/08/01 01:47:36;;;;;;;;;;;;;;;22.24;100.00;99772.22;104981;1265;66160;-60
2023/08/01 01:50:05;;;;;;;;;;;;;;;22.19;100.00;99771.55;104985;1260;72668;-60
2023/08/01 01:52:32;;;;;;;;;;;;;;;22.14;100.00;99776.39;104867;1265;61336;-62
2023/08/01 01:54:59;;;;;;;;;;;;;;;22.11;100.00;99780.35;105214;1260;61339;-64
2023/08/01 01:57:27;;;;;;;;;;;;;;;22.08;100.00;99778.92;105232;1259;73346;-60
2023/08/01 01:59:54;;;;;;;;;;;;;;;22.06;100.00;99782.13;104858;1265;66909;-61
2023/08/01 02:02:20;;;;;;;;;;;;;;;22.05;100.00;99776.23;105026;1262;72601;-61
2023/08/01 02:04:47;;;;;;;;;;;;;;;22.02;100.00;99772.36;104904;1262;61348;-62
2023/08/01 02:07:14;;;;;;;;;;;;;;;22.00;100.00;99768.55;105764;1259;61254;-63
2023/08/01 02:09:41;;;;;;;;;;;;;;;22.00;100.00;99772.53;104893;1260;74806;-62
2023/08/01 02:12:09;;;;;;;;;;;;;;;22.00;100.00;99776.09;104925;1260;67264;-60
2023/08/01 02:14:36;;;;;;;;;;;;;;;22.00;100.00;99774.70;104999;1260;72577;-61
2023/08/01 02:17:04;;;;;;;;;;;;;;;22.02;100.00;99774.13;105295;1260;62023;-65
2023/08/01 02:19:30;;;;;;;;;;;;;;;22.02;100.00;99770.63;105531;1260;61269;-61
2023/08/01 02:21:58;;;;;;;;;;;;;;;22.04;100.00;99769.55;104891;1261;74671;-61
2023/08/01 02:24:25;;;;;;;;;;;;;;;22.07;100.00;99769.65;104857;1260;67435;-61
2023/08/01 02:26:52;;;;;;;;;;;;;;;22.10;100.00;99771.70;104937;1263;72690;-61
2023/08/01 02:29:18;;;;;;;;;;;;;;;22.13;100.00;99764.91;105280;1259;62553;-62
2023/08/01 02:31:45;;;;;;;;;;;;;;;22.17;100.00;99764.66;105011;1260;61288;-61
2023/08/01 02:34:12;;;;;;;;;;;;;;;22.20;100.00;99766.49;104994;1259;74573;-61
2023/08/01 02:36:40;;;;;;;;;;;;;;;22.25;100.00;99766.01;104939;1260;67350;-61
2023/08/01 02:39:07;;;;;;;;;;;;;;;22.31;100.00;99763.59;105414;1260;71901;-65
2023/08/01 02:41:34;;;;;;;;;;;;;;;22.38;100.00;99762.86;105044;1259;61468;-63
2023/08/01 02:44:01;;;;;;;;;;;;;;;22.43;100.00;99763.73;104712;1258;60059;-64
2023/08/01 02:46:29;;;;;;;;;;;;;;;22.51;100.00;99761.46;105000;1260;74595;-61
2023/08/01 02:48:56;;;;;;;;;;;;;;;22.62;100.00;99760.61;105404;1260;67201;-67
2023/08/01 02:51:23;;;;;;;;;;;;;;;22.72;100.00;99760.81;104756;1259;420198;-61
2023/08/01 02:53:50;;;;;;;;;;;;;;;22.78;100.00;99751.42;104991;1260;61321;-62
2023/08/01 02:56:17;;;;;;;;;;;;;;;22.88;100.00;99752.80;104867;1260;61171;-64
2023/08/01 02:58:44;;;;;;;;;;;;;;;22.99;100.00;99755.35;105371;1259;74293;-62
2023/08/01 03:01:11;;;;;;;;;;;;;;;23.14;100.00;99750.56;104851;1262;67021;-67
2023/08/01 03:03:38;;;;;;;;;;;;;;;23.30;100.00;99752.28;105215;1262;70595;-67
2023/08/01 03:06:05;;;;;;;;;;;;;;;23.43;100.00;99749.67;104887;1263;62734;-62
2023/08/01 03:08:32;;;;;;;;;;;;;;;23.58;100.00;99747.13;105288;1259;61250;-62
2023/08/01 03:10:59;;;;;;;;;;;;;;;23.80;100.00;99746.73;105228;1262;74628;-62
2023/08/01 03:13:26;;;;;;;;;;;;;;;24.27;100.00;99739.61;104881;1263;66871;-63
2023/08/01 03:15:53;;;;;;;;;;;;;;;24.93;100.00;99733.36;104903;1260;72841;-60
2023/08/01 03:18:20;;;;;;;;;;;;;;;25.41;100.00;99735.68;104927;1262;61187;-60
2023/08/01 03:20:47;;;;;;;;;;;;;;;25.73;100.00;99733.83;104942;1262;61119;-60
2023/08/01 03:23:14;;;;;;;;;;;;;;;26.16;100.00;99734.36;105280;1259;73787;-61
2023/08/01 03:25:41;;;;;;;;;;;;;;;26.63;100.00;99733.73;105152;1262;65886;-59
2023/08/01 03:28:09;;;;;;;;;;;;;;;27.08;100.00;99733.88;104914;1260;72795;-59
2023/08/01 03:30:36;;;;;;;;;;;;;;;27.40;100.00;99728.31;105021;1259;61229;-59
2023/08/01 03:33:03;;;;;;;;;;;;;;;27.44;100.00;99729.13;105015;1259;61310;-60
2023/08/01 03:35:30;;;;;;;;;;;;;;;27.26;100.00;99728.86;104976;1262;74567;-60
2023/08/01 03:37:57;;;;;;;;;;;;;;;27.02;100.00;99729.73;105320;1258;67987;-63
2023/08/01 03:40:23;;;;;;;;;;;;;;;26.81;100.00;99729.54;104939;1259;73381;-60
2023/08/01 03:42:50;;;;;;;;;;;;;;;26.57;100.00;99725.81;104931;1259;61169;-60
2023/08/01 03:45:17;;;;;;;;;;;;;;;26.32;100.00;99730.70;105230;1259;61113;-64
2023/08/01 03:47:44;;;;;;;;;;;;;;;26.11;100.00;99732.30;105016;1262;75293;-60
2023/08/01 03:50:13;;;;;;;;;;;;;;;25.89;100.00;99733.73;105458;1260;67208;-66
2023/08/01 03:52:40;;;;;;;;;;;;;;;25.66;100.00;99732.73;104746;1258;72833;-62
2023/08/01 03:55:08;;;;;;;;;;;;;;;25.46;100.00;99730.86;104857;1264;61328;-62
2023/08/01 03:57:34;;;;;;;;;;;;;;;25.29;100.00;99734.08;105076;1260;61273;-63
2023/08/01 04:00:03;;;;;;;;;;;;;;;25.13;100.00;99731.84;104609;1264;74540;-61
2023/08/01 04:02:38;;;;;;;;;;;;;;;25.00;100.00;99733.15;104736;1259;67092;-61
2023/08/01 04:05:06;;;;;;;;;;;;;;;24.93;100.00;99735.02;105030;1260;72517;-61
2023/08/01 04:07:32;;;;;;;;;;;;;;;24.91;100.00;99736.98;104958;1263;61243;-62
2023/08/01 04:09:59;;;;;;;;;;;;;;;24.94;100.00;99741.83;104932;1262;61234;-62
2023/08/01 04:12:26;;;;;;;;;;;;;;;25.01;100.00;99743.32;105157;1260;73552;-65
2023/08/01 04:14:53;;;;;;;;;;;;;;;25.06;100.00;99742.76;104956;1259;66620;-62
2023/08/01 04:17:20;;;;;;;;;;;;;;;25.13;100.00;99743.70;105110;1260;72754;-62
2023/08/01 04:19:46;;;;;;;;;;;;;;;25.22;100.00;99747.98;104910;1258;61421;-61
2023/08/01 04:22:13;;;;;;;;;;;;;;;25.30;100.00;99753.33;104996;1259;61102;-61
2023/08/01 04:24:40;;;;;;;;;;;;;;;25.35;100.00;99752.77;105256;1258;74710;-63
2023/08/01 04:27:07;;;;;;;;;;;;;;;25.35;100.00;99754.25;104886;1260;65706;-65
2023/08/01 04:29:34;;;;;;;;;;;;;;;25.43;100.00;99752.14;104902;1260;71119;-61
2023/08/01 04:32:01;;;;;;;;;;;;;;;25.55;100.00;99751.23;105016;1259;61229;-62
2023/08/01 04:34:28;;;;;;;;;;;;;;;25.69;100.00;99753.80;105010;1258;61373;-61
2023/08/01 04:36:55;;;;;;;;;;;;;;;26.08;100.00;99757.73;105586;1258;73496;-60
2023/08/01 04:39:22;;;;;;;;;;;;;;;26.75;100.00;99754.77;105079;1257;65999;-63
2023/08/01 04:41:49;;;;;;;;;;;;;;;27.47;100.00;99752.98;104984;1261;72812;-61
2023/08/01 04:44:16;;;;;;;;;;;;;;;28.24;100.00;99751.36;104971;1262;61232;-63
2023/08/01 04:46:43;;;;;;;;;;;;;;;28.88;100.00;99750.12;104790;1260;61381;-61
2023/08/01 04:49:10;;;;;;;;;;;;;;;29.36;100.00;99750.45;105226;1258;75027;-63
2023/08/01 04:51:37;;;;;;;;;;;;;;;29.62;100.00;99751.95;104952;1258;67572;-62
2023/08/01 04:54:04;;;;;;;;;;;;;;;29.71;100.00;99749.24;104970;1260;73329;-62
2023/08/01 04:56:31;;;;;;;;;;;;;;;29.78;100.00;99749.12;105007;1258;61346;-62
2023/08/01 04:58:58;;;;;;;;;;;;;;;29.87;100.00;99748.91;104820;1257;61298;-62
2023/08/01 05:01:24;;;;;;;;;;;;;;;29.93;100.00;99750.91;105670;1259;74850;-65
2023/08/01 05:03:51;;;;;;;;;;;;;;;29.94;100.00;99748.53;104957;1257;67283;-61
2023/08/01 05:06:18;;;;;;;;;;;;;;;29.94;100.00;99749.07;105175;1262;72752;-61
2023/08/01 05:08:45;;;;;;;;;;;;;;;29.92;100.00;99751.41;105253;1262;61163;-61
2023/08/01 05:11:12;;;;;;;;;;;;;;;29.92;100.00;99752.81;105793;1257;61269;-65
2023/08/01 05:13:39;;;;;;;;;;;;;;;30.02;100.00;99751.05;104841;1261;73400;-60
2023/08/01 05:16:05;;;;;;;;;;;;;;;30.23;100.00;99750.09;104950;1257;67147;-60
2023/08/01 05:18:32;;;;;;;;;;;;;;;30.65;100.00;99746.50;104935;1260;72709;-60
2023/08/01 05:20:59;;;;;;;;;;;;;;;31.23;97.78;99744.64;105067;1259;61384;-60
2023/08/01 05:23:26;;;;;;;;;;;;;;;32.08;90.61;99750.52;105044;1258;61276;-65
2023/08/01 05:25:53;;;;;;;;;;;;;;;33.12;75.98;99745.48;104644;1262;75186;-60
2023/08/01 05:28:20;;;;;;;;;;;;;;;34.30;61.01;99736.92;104955;1260;66973;-61
2023/08/01 05:30:47;;;;;;;;;;;;;;;35.32;52.92;99737.31;105408;1260;63796;-60
2023/08/01 05:33:14;;;;;;;;;;;;;;;36.36;46.45;99737.52;104920;1260;63467;-60
2023/08/01 05:35:41;;;;;;;;;;;;;;;37.53;41.89;99737.23;105199;1260;61366;-65
2023/08/01 05:38:08;;;;;;;;;;;;;;;38.53;37.35;99736.71;104635;1262;64743;-61
2023/08/01 05:40:35;;;;;;;;;;;;;;;39.23;35.19;99734.45;104929;1264;61274;-60
2023/08/01 05:43:03;;;;;;;;;;;;;;;39.85;33.32;99735.94;104906;1262;64068;-61
2023/08/01 05:45:30;;;;;;;;;;;;;;;40.39;31.31;99737.73;104908;1259;60001;-61
2023/08/01 05:47:57;;;;;;;;;;;;;;;40.70;30.03;99742.42;105060;1260;61356;-65
2023/08/01 05:50:24;;;;;;;;;;;;;;;40.79;29.36;99741.73;105037;1258;66061;-60
2023/08/01 05:52:51;;;;;;;;;;;;;;;40.95;28.71;99745.21;105645;1262;61366;-61
2023/08/01 05:55:18;;;;;;;;;;;;;;;41.29;28.44;99741.00;105166;1259;64140;-60
2023/08/01 05:57:45;;;;;;;;;;;;;;;41.55;27.98;99740.38;105211;1257;61386;-65
2023/08/01 06:00:12;;;;;;;;;;;;;;;41.62;28.13;99744.14;104642;1259;61273;-60
2023/08/01 06:02:38;;;;;;;;;;;;;;;41.68;28.69;99747.67;105491;1259;66042;-60
2023/08/01 06:05:06;;;;;;;;;;;;;;;41.69;28.23;99744.39;105055;1260;61303;-59
2023/08/01 06:07:33;;;;;;;;;;;;;;;41.63;28.25;99742.57;104894;1262;64084;-59
2023/08/01 06:10:00;;;;;;;;;;;;;;;41.67;28.33;99742.14;105324;1260;61218;-65
2023/08/01 06:12:26;;;;;;;;;;;;;;;41.82;27.73;99742.95;104602;1260;61231;-60
2023/08/01 06:14:53;;;;;;;;;;;;;;;41.93;27.71;99743.61;105116;1261;66093;-60
2023/08/01 06:17:20;;;;;;;;;;;;;;;42.33;27.10;99739.30;105025;1261;61385;-59
2023/08/01 06:19:49;;;;;;;;;;;;;;;42.84;26.52;99739.14;105601;1257;64073;-62
2023/08/01 06:22:16;;;;;;;;;;;;;;;43.16;25.65;99741.80;105085;1261;61631;-59
2023/08/01 06:24:43;;;;;;;;;;;;;;;43.16;25.64;99741.87;105021;1262;61397;-60
2023/08/01 06:27:10;;;;;;;;;;;;;;;43.19;25.59;99743.23;105042;1262;64837;-60
2023/08/01 06:29:37;;;;;;;;;;;;;;;43.19;25.94;99743.33;104931;1261;61341;-58
2023/08/01 06:32:05;;;;;;;;;;;;;;;42.90;26.31;99743.52;105411;1262;64210;-61
2023/08/01 06:34:31;;;;;;;;;;;;;;;42.59;26.74;99744.73;105077;1257;61265;-57
2023/08/01 06:36:58;;;;;;;;;;;;;;;42.54;26.49;99746.69;105058;1260;61151;-58
2023/08/01 06:39:25;;;;;;;;;;;;;;;42.55;26.33;99744.95;105115;1261;66109;-57
2023/08/01 06:41:52;;;;;;;;;;;;;;;42.42;26.37;99747.95;104893;1262;61334;-57
2023/08/01 06:44:19;;;;;;;;;;;;;;;42.04;26.40;99752.47;105377;1261;64693;-59
2023/08/01 06:46:46;;;;;;;;;;;;;;;41.51;27.43;99747.06;105168;1262;61221;-58
2023/08/01 06:49:13;;;;;;;;;;;;;;;41.19;27.48;99750.30;108292;1258;59314;-57
2023/08/01 06:51:41;;;;;;;;;;;;;;;41.02;27.55;99748.55;105228;1259;65966;-59
2023/08/01 06:54:08;;;;;;;;;;;;;;;41.17;27.38;99746.34;105805;1260;61254;-60
2023/08/01 06:56:35;;;;;;;;;;;;;;;41.35;27.45;99743.51;105426;1259;64567;-60
2023/08/01 06:59:01;;;;;;;;;;;;;;;41.30;27.64;99741.52;105353;1260;61289;-59
2023/08/01 07:01:28;;;;;;;;;;;;;;;40.98;27.56;99740.20;105284;1260;61164;-59
2023/08/01 07:03:56;;;;;;;;;;;;;;;40.49;27.85;99738.53;105960;1262;66058;-59
2023/08/01 07:06:24;;;;;;;;;;;;;;;40.27;28.62;99738.57;105668;1262;61327;-60
2023/08/01 07:08:51;;;;;;;;;;;;;;;40.57;29.37;99737.17;105374;1260;64577;-61
2023/08/01 07:11:18;;;;;;;;;;;;;;;41.20;28.15;99734.10;105012;1260;61145;-59
2023/08/01 07:13:45;;;;;;;;;;;;;;;41.88;27.13;99728.23;105419;1258;61292;-58
2023/08/01 07:16:12;;;;;;;;;;;;;;;42.29;26.41;99722.69;105228;1260;66399;-59
2023/08/01 07:18:39;;;;;;;;;;;;;;;42.52;26.60;99721.42;105582;1262;61353;-63
2023/08/01 07:21:06;;;;;;;;;;;;;;;42.82;25.75;99721.15;105401;1262;72940;-59
2023/08/01 07:23:33;;;;;;;;;;;;;;;42.80;24.84;99720.27;105308;1262;61606;-60
2023/08/01 07:26:00;;;;;;;;;;;;;;;42.63;24.71;99717.52;105757;1262;61246;-59
2023/08/01 07:28:29;;;;;;;;;;;;;;;42.74;24.33;99719.23;105398;1259;65884;-60
2023/08/01 07:31:04;;;;;;;;;;;;;;;42.85;24.04;99721.91;105368;1258;61332;-63
2023/08/01 07:33:31;;;;;;;;;;;;;;;42.51;24.17;99720.98;105345;1264;71425;-60
2023/08/01 07:35:59;;;;;;;;;;;;;;;42.15;24.38;99720.41;105719;1262;61341;-60
2023/08/01 07:38:31;;;;;;;;;;;;;;;42.14;24.99;99720.74;105304;1259;61253;-60
2023/08/01 07:40:59;;;;;;;;;;;;;;;42.18;25.11;99722.72;105566;1259;66554;-64
2023/08/01 07:43:26;;;;;;;;;;;;;;;42.20;24.59;99720.05;105066;1264;66953;-59
2023/08/01 07:45:56;;;;;;;;;;;;;;;41.86;24.09;99724.98;105799;1260;64226;-59
2023/08/01 07:48:23;;;;;;;;;;;;;;;41.58;24.63;99721.27;105321;1260;61336;-60
2023/08/01 07:50:50;;;;;;;;;;;;;;;41.59;24.58;99721.27;105778;1259;61245;-60
2023/08/01 07:53:17;;;;;;;;;;;;;;;41.64;24.70;99723.41;105580;1261;66917;-62
2023/08/01 07:55:44;;;;;;;;;;;;;;;41.88;24.28;99715.42;105224;1260;61227;-59
2023/08/01 07:58:12;;;;;;;;;;;;;;;42.10;24.16;99713.29;105310;1260;62876;-60
2023/08/01 08:00:39;;;;;;;;;;;;;;;42.22;25.30;99714.94;105215;1262;61225;-60
2023/08/01 08:03:08;;;;;;;;;;;;;;;42.43;25.04;99713.02;105118;1258;61348;-59
2023/08/01 08:05:38;;;;;;;;;;;;;;;42.65;24.39;99714.99;105387;1261;73209;-61
2023/08/01 08:08:05;;;;;;;;;;;;;;;42.62;24.32;99710.41;105145;1260;61344;-62
2023/08/01 08:10:33;;;;;;;;;;;;;;;42.65;24.06;99706.84;105302;1260;64142;-61
2023/08/01 08:13:00;;;;;;;;;;;;;;;42.81;23.58;99699.17;105333;1262;61252;-60
2023/08/01 08:15:27;;;;;;;;;;;;;;;43.09;23.65;99700.06;105717;1261;61237;-62
2023/08/01 08:17:54;;;;;;;;;;;;;;;43.35;23.49;99698.28;105216;1259;64714;-60
2023/08/01 08:20:20;;;;;;;;;;;;;;;43.13;23.39;99697.01;105230;1259;59986;-60
2023/08/01 08:22:47;;;;;;;;;;;;;;;42.89;23.94;99696.55;105377;1262;64109;-62
2023/08/01 08:25:14;;;;;;;;;;;;;;;42.96;24.12;99697.52;105213;1262;61222;-65
2023/08/01 08:27:41;;;;;;;;;;;;;;;43.01;23.60;99697.13;105636;1257;61253;-61
2023/08/01 08:30:08;;;;;;;;;;;;;;;42.73;23.90;99694.52;105213;1261;65781;-61
2023/08/01 08:32:35;;;;;;;;;;;;;;;42.12;24.89;99697.38;105504;1260;60096;-61
2023/08/01 08:35:02;;;;;;;;;;;;;;;41.61;25.35;99699.91;105651;1258;71710;-64
2023/08/01 08:37:29;;;;;;;;;;;;;;;41.61;25.74;99695.67;105576;1261;61242;-60
2023/08/01 08:39:56;;;;;;;;;;;;;;;41.81;25.39;99692.10;105020;1259;61113;-60
2023/08/01 08:42:24;;;;;;;;;;;;;;;42.10;25.32;99683.55;105407;1262;67999;-63
2023/08/01 08:44:54;;;;;;;;;;;;;;;42.60;24.98;99679.42;105030;1260;61296;-60
2023/08/01 08:47:24;;;;;;;;;;;;;;;42.84;24.38;99678.37;105371;1260;64546;-61
2023/08/01 08:49:51;;;;;;;;;;;;;;;42.59;24.07;99672.16;105858;1260;61221;-60
2023/08/01 08:52:18;;;;;;;;;;;;;;;42.56;24.09;99672.44;105144;1262;61197;-61
2023/08/01 08:54:45;;;;;;;;;;;;;;;42.77;23.64;99670.10;105130;1259;65851;-61
2023/08/01 08:57:12;;;;;;;;;;;;;;;42.65;22.73;99668.23;105269;1260;61361;-64
2023/08/01 08:59:39;;;;;;;;;;;;;;;42.16;21.91;99670.41;105378;1262;62696;-61
2023/08/01 09:02:06;;;;;;;;;;;;;;;41.48;22.32;99675.86;105312;1262;61266;-60
2023/08/01 09:04:33;;;;;;;;;;;;;;;40.92;22.79;99675.98;105025;1260;61237;-59
2023/08/01 09:07:06;;;;;;;;;;;;;;;40.56;23.14;99675.84;104948;1260;64647;-58
2023/08/01 09:09:32;;;;;;;;;;;;;;;40.37;23.31;99671.81;105425;1262;62078;-59
2023/08/01 09:11:59;;;;;;;;;;;;;;;40.24;23.44;99668.05;104929;1260;63977;-59
2023/08/01 09:14:26;;;;;;;;;;;;;;;40.34;23.77;99668.39;104966;1262;61171;-60
2023/08/01 09:16:53;;;;;;;;;;;;;;;40.51;23.34;99667.59;105235;1261;61129;-64
2023/08/01 09:19:20;;;;;;;;;;;;;;;40.79;23.47;99670.60;104918;1262;66801;-59
2023/08/01 09:21:47;;;;;;;;;;;;;;;41.11;22.89;99666.45;105393;1260;61357;-59
2023/08/01 09:24:15;;;;;;;;;;;;;;;41.34;23.28;99656.46;105079;1259;62775;-59
2023/08/01 09:26:42;;;;;;;;;;;;;;;41.78;22.52;99648.20;105089;1260;61283;-58
2023/08/01 09:29:09;;;;;;;;;;;;;;;42.01;22.13;99651.51;105324;1258;61159;-60
2023/08/01 09:31:37;;;;;;;;;;;;;;;41.72;22.47;99654.03;105607;1260;66119;-60
2023/08/01 09:34:07;;;;;;;;;;;;;;;41.46;22.89;99656.21;104963;1263;61435;-60
2023/08/01 09:36:34;;;;;;;;;;;;;;;41.36;23.08;99655.52;104900;1260;64134;-59
2023/08/01 09:39:02;;;;;;;;;;;;;;;40.95;22.43;99656.90;105045;1261;61224;-58
2023/08/01 09:41:30;;;;;;;;;;;;;;;40.32;22.76;99655.91;105068;1259;61157;-59
2023/08/01 09:43:57;;;;;;;;;;;;;;;40.22;23.03;99648.02;104970;1260;65982;-58
2023/08/01 09:46:24;;;;;;;;;;;;;;;40.26;23.66;99650.65;105071;1262;61230;-65
2023/08/01 09:48:51;;;;;;;;;;;;;;;39.98;24.06;99650.76;105003;1260;64159;-59
2023/08/01 09:51:18;;;;;;;;;;;;;;;39.41;24.66;99647.95;104955;1260;61648;-59
2023/08/01 09:53:48;;;;;;;;;;;;;;;38.95;25.31;99647.92;105172;1262;61608;-60
2023/08/01 09:56:20;;;;;;;;;;;;;;;38.78;25.68;99639.89;104917;1264;66058;-64
2023/08/01 09:58:48;;;;;;;;;;;;;;;38.77;25.43;99634.98;105201;1259;61195;-59
2023/08/01 10:01:15;;;;;;;;;;;;;;;38.97;25.31;99633.36;105061;1260;63987;-59
2023/08/01 10:03:44;;;;;;;;;;;;;;;39.16;24.98;99630.69;104910;1260;61381;-64
2023/08/01 10:06:12;;;;;;;;;;;;;;;39.28;24.11;99622.28;104880;1260;61224;-64
2023/08/01 10:08:39;;;;;;;;;;;;;;;39.39;23.73;99618.13;104868;1262;66715;-59
2023/08/01 10:11:06;;;;;;;;;;;;;;;39.49;23.42;99618.95;105014;1262;61231;-60
2023/08/01 10:13:33;;;;;;;;;;;;;;;39.59;23.83;99622.52;104898;1260;64072;-59
2023/08/01 10:16:00;;;;;;;;;;;;;;;39.50;24.12;99620.91;105349;1265;61267;-61
2023/08/01 10:18:27;;;;;;;;;;;;;;;39.38;23.87;99619.15;104970;1262;61241;-59
2023/08/01 10:20:54;;;;;;;;;;;;;;;39.23;23.59;99613.23;105056;1258;66027;-59
2023/08/01 10:23:21;;;;;;;;;;;;;;;39.39;25.09;99610.10;104876;1260;66341;-60
2023/08/01 10:25:48;;;;;;;;;;;;;;;39.75;24.49;99608.66;104934;1262;63945;-59
2023/08/01 10:28:15;;;;;;;;;;;;;;;40.10;23.63;99606.64;104893;1259;61276;-65
2023/08/01 10:30:42;;;;;;;;;;;;;;;40.29;23.07;99607.02;104874;1260;61260;-59
2023/08/01 10:33:12;;;;;;;;;;;;;;;40.13;22.35;99606.70;104985;1261;65841;-59
2023/08/01 10:35:39;;;;;;;;;;;;;;;39.72;22.12;99603.46;104941;1260;61269;-59
2023/08/01 10:38:07;;;;;;;;;;;;;;;39.35;22.63;99601.86;104603;1260;64069;-65
2023/08/01 10:40:36;;;;;;;;;;;;;;;39.19;22.12;99599.84;105294;1259;61263;-59
2023/08/01 10:43:03;;;;;;;;;;;;;;;39.19;22.41;99597.66;104930;1262;61113;-58
2023/08/01 10:45:30;;;;;;;;;;;;;;;39.14;22.26;99593.55;104852;1262;66144;-60
2023/08/01 10:48:10;;;;;;;;;;;;;;;39.03;21.93;99593.73;105567;1260;61238;-60
2023/08/01 10:50:37;;;;;;;;;;;;;;;38.85;20.53;99595.83;105483;1260;73589;-61
2023/08/01 10:53:05;;;;;;;;;;;;;;;38.42;20.67;99595.16;105003;1262;61353;-58
2023/08/01 10:55:41;;;;;;;;;;;;;;;38.11;21.24;99592.70;104901;1261;61258;-59
2023/08/01 10:58:08;;;;;;;;;;;;;;;38.09;21.89;99590.81;105084;1262;65901;-64
2023/08/01 11:00:35;;;;;;;;;;;;;;;38.43;21.92;99589.88;104868;1262;61184;-59
2023/08/01 11:03:02;;;;;;;;;;;;;;;38.77;21.15;99589.05;104893;1260;62846;-59
2023/08/01 11:05:30;;;;;;;;;;;;;;;38.98;21.39;99586.79;104856;1260;61794;-60
2023/08/01 11:07:57;;;;;;;;;;;;;;;39.14;22.14;99585.52;105216;1259;61280;-65
2023/08/01 11:10:25;;;;;;;;;;;;;;;39.10;23.42;99582.42;104933;1262;66771;-60
2023/08/01 11:12:53;;;;;;;;;;;;;;;38.99;24.32;99575.98;105603;1262;61237;-60
2023/08/01 11:15:20;;;;;;;;;;;;;;;38.83;24.28;99573.65;105112;1262;63956;-59
2023/08/01 11:17:47;;;;;;;;;;;;;;;38.58;23.97;99568.35;104991;1259;61176;-62
2023/08/01 11:20:14;;;;;;;;;;;;;;;38.25;24.37;99565.35;105302;1262;60147;-67
2023/08/01 11:22:53;;;;;;;;;;;;;;;38.00;25.12;99567.31;105776;1260;64935;-61
2023/08/01 11:25:31;;;;;;;;;;;;;;;37.85;24.99;99566.16;104972;1260;61350;-61
2023/08/01 11:28:01;;;;;;;;;;;;;;;37.64;25.37;99568.56;104694;1259;62807;-66
2023/08/01 11:30:32;;;;;;;;;;;;;;;37.40;25.97;99566.65;104583;1265;61314;-59
2023/08/01 11:33:15;;;;;;;;;;;;;;;37.28;26.26;99565.48;105668;1261;61151;-60
2023/08/01 11:35:42;;;;;;;;;;;;;;;37.25;25.52;99562.52;105487;1262;66129;-64
2023/08/01 11:38:09;;;;;;;;;;;;;;;37.18;25.20;99563.04;104836;1260;61353;-60
2023/08/01 11:40:36;;;;;;;;;;;;;;;37.18;25.54;99558.84;104737;1260;64442;-59
2023/08/01 11:43:03;;;;;;;;;;;;;;;37.27;26.32;99561.68;105552;1260;61274;-60
2023/08/01 11:45:30;;;;;;;;;;;;;;;37.48;25.66;99561.58;105191;1267;59948;-60
2023/08/01 11:47:56;;;;;;;;;;;;;;;37.53;25.19;99563.95;105168;1260;64562;-66
2023/08/01 11:50:24;;;;;;;;;;;;;;;37.33;25.17;99560.41;104894;1263;61342;-61
2023/08/01 11:52:51;;;;;;;;;;;;;;;37.13;26.16;99561.22;105735;1260;62921;-59
2023/08/01 11:55:19;;;;;;;;;;;;;;;36.91;26.07;99564.23;104891;1260;61177;-61
2023/08/01 11:57:56;;;;;;;;;;;;;;;36.57;26.21;99561.87;104978;1263;61330;-60
2023/08/01 12:00:26;;;;;;;;;;;;;;;36.31;26.64;99564.33;104909;1262;66151;-60
2023/08/01 12:03:03;;;;;;;;;;;;;;;36.30;27.22;99563.09;105061;1260;61296;-62
2023/08/01 12:05:30;;;;;;;;;;;;;;;36.40;27.28;99562.02;104805;1264;64074;-59
2023/08/01 12:08:07;;;;;;;;;;;;;;;36.44;26.94;99560.05;104830;1266;61445;-66
2023/08/01 12:10:52;;;;;;;;;;;;;;;36.64;27.46;99556.35;105365;1262;61146;-61
2023/08/01 12:13:22;;;;;;;;;;;;;;;36.99;26.65;99556.70;105623;1258;66116;-59
2023/08/01 12:15:50;;;;;;;;;;;;;;;37.35;27.24;99552.96;105078;1260;61273;-66
2023/08/01 12:18:21;;;;;;;;;;;;;;;37.68;26.06;99546.13;104938;1259;72337;-61
2023/08/01 12:21:07;;;;;;;;;;;;;;;37.84;26.49;99542.61;104730;1262;61263;-60
2023/08/01 12:23:35;;;;;;;;;;;;;;;38.14;26.45;99544.33;104844;1262;61373;-67
2023/08/01 12:26:02;;;;;;;;;;;;;;;38.48;25.57;99541.19;105023;1263;66731;-62
2023/08/01 12:28:29;;;;;;;;;;;;;;;38.63;25.30;99542.82;104846;1262;61244;-62
2023/08/01 12:30:58;;;;;;;;;;;;;;;38.66;25.04;99547.09;108419;1259;64088;-60
2023/08/01 12:33:25;;;;;;;;;;;;;;;38.48;24.82;99548.19;105063;1258;61356;-60
2023/08/01 12:35:54;;;;;;;;;;;;;;;38.13;25.06;99554.05;104990;1260;61340;-61